CYSY

Sachs Harbour (David Nasogaluak Jr. Saaryuaq) Airport

Sachs Harbour, Northwest Territories, Canada
METAR CYSY 211300Z 27021KT 10SM -SN BR OVC004 M00/M01 A3000 RMK ST8 CIG RAG SLP167
Observed Flight Rules
Jul-21 @ 13:00 UTC (52 minutes ago) Instrument Flight Rules
Wind Visibility Clouds Conditions
270° at 21 knots 10 miles
  • Overcast at 400' AGL
  • Light Snow
  • Mist
Temperatures Readings
Current 0°C / 32°F
Dewpoint -1°C / 30°F
Humidity 93%
Altimeter 30" Hg
Pressure 1016.7 hPa
Elevation 86
METAR CYSY 211300Z 27021KT 10SM -SN BR OVC004 M00/M01 A3000 RMK ST8 CIG RAG SLP167
Observed Flight Rules
Jul-21 @ 13:00 UTC
(52 minutes ago)
LIFR
Wind Visibility
270° at 21 knots 10 miles
Clouds
  • Overcast at 400' AGL
Conditions
  • Light Snow
  • Mist
Temperature Dewpoint
0°C / 32°F -1°C / 30°F
Humidity Altimeter Pressure
93% 30" Hg 1016.7 hPa